createdAt,value
2022-07-31T00:02:08.559Z,20.75
2022-07-31T00:04:35.206Z,20.75
2022-07-31T00:07:04.600Z,20.60
2022-07-31T00:09:53.331Z,20.59
2022-07-31T00:12:18.166Z,20.51
2022-07-31T00:14:45.079Z,20.38
2022-07-31T00:17:11.802Z,20.33
2022-07-31T00:19:41.783Z,20.16
2022-07-31T00:22:09.556Z,20.08
2022-07-31T00:24:36.322Z,20.14
2022-07-31T00:27:05.646Z,20.13
2022-07-31T00:29:32.567Z,20.11
2022-07-31T00:31:59.324Z,20.06
2022-07-31T00:34:25.947Z,20.04
2022-07-31T00:36:52.561Z,19.98
2022-07-31T00:39:24.179Z,20.00
2022-07-31T00:41:50.799Z,20.04
2022-07-31T00:44:18.515Z,19.96
2022-07-31T00:46:45.225Z,19.98
2022-07-31T00:49:12.158Z,20.00
2022-07-31T00:51:41.620Z,20.02
2022-07-31T00:54:08.637Z,20.04
2022-07-31T00:56:37.714Z,20.04
2022-07-31T00:59:04.687Z,20.02
2022-07-31T01:01:34.452Z,19.97
2022-07-31T01:04:01.158Z,19.86
2022-07-31T01:06:30.288Z,19.85
2022-07-31T01:08:58.072Z,19.90
2022-07-31T01:11:29.103Z,19.91
2022-07-31T01:14:02.123Z,19.96
2022-07-31T01:16:31.591Z,19.94
2022-07-31T01:18:58.248Z,19.98
2022-07-31T01:21:27.607Z,20.06
2022-07-31T01:24:12.104Z,20.04
2022-07-31T01:27:11.168Z,20.12
2022-07-31T01:29:42.987Z,20.15
2022-07-31T01:32:27.809Z,20.16
2022-07-31T01:35:07.329Z,20.20
2022-07-31T01:37:34.732Z,20.07
2022-07-31T01:40:24.628Z,20.08
2022-07-31T01:42:54.039Z,20.01
2022-07-31T01:45:21.168Z,19.94
2022-07-31T01:47:47.917Z,19.90
2022-07-31T01:50:42.329Z,19.82
2022-07-31T01:53:03.671Z,19.89
2022-07-31T01:56:02.137Z,19.90
2022-07-31T01:58:21.292Z,19.97
2022-07-31T02:00:51.320Z,19.94
2022-07-31T02:03:18.003Z,20.08
2022-07-31T02:06:04.624Z,20.13
2022-07-31T02:08:36.077Z,19.98
2022-07-31T02:11:02.928Z,19.92
2022-07-31T02:13:32.220Z,19.91
2022-07-31T02:15:58.860Z,19.82
2022-07-31T02:18:27.857Z,19.73
2022-07-31T02:21:17.270Z,19.72
2022-07-31T02:23:46.546Z,19.70
2022-07-31T02:26:14.800Z,19.77
2022-07-31T02:28:42.157Z,19.70
2022-07-31T02:31:10.317Z,19.56
2022-07-31T02:33:37.028Z,19.57
2022-07-31T02:36:05.207Z,19.52
2022-07-31T02:38:33.600Z,19.57
2022-07-31T02:41:01.805Z,19.55
2022-07-31T02:43:29.429Z,19.56
2022-07-31T02:46:00.438Z,19.62
2022-07-31T02:48:32.418Z,19.63
2022-07-31T02:51:03.208Z,19.61
2022-07-31T02:53:30.255Z,19.52
2022-07-31T02:56:01.410Z,19.48
2022-07-31T02:58:31.980Z,19.55
2022-07-31T03:01:02.363Z,19.60
2022-07-31T03:03:31.120Z,19.51
2022-07-31T03:05:58.103Z,19.50
2022-07-31T03:08:27.277Z,19.47
2022-07-31T03:10:58.171Z,19.49
2022-07-31T03:13:26.706Z,19.49
2022-07-31T03:15:58.229Z,19.59
2022-07-31T03:18:25.002Z,19.49
2022-07-31T03:20:54.135Z,19.36
2022-07-31T03:23:27.221Z,19.27
2022-07-31T03:26:01.920Z,19.34
2022-07-31T03:28:28.581Z,19.37
2022-07-31T03:30:57.949Z,19.25
2022-07-31T03:33:28.456Z,19.23
2022-07-31T03:35:55.807Z,19.25
2022-07-31T03:38:41.156Z,19.23
2022-07-31T03:41:11.696Z,19.16
2022-07-31T03:43:47.188Z,19.21
2022-07-31T03:46:18.706Z,19.30
2022-07-31T03:48:45.718Z,19.33
2022-07-31T03:51:14.874Z,19.31
2022-07-31T03:53:42.129Z,19.17
2022-07-31T03:56:11.924Z,19.08
2022-07-31T03:58:38.901Z,19.04
2022-07-31T04:01:10.586Z,19.02
2022-07-31T04:03:39.270Z,19.00
2022-07-31T04:06:35.431Z,19.04
2022-07-31T04:09:10.475Z,19.07
2022-07-31T04:11:46.757Z,19.11
2022-07-31T04:14:16.423Z,19.07
2022-07-31T04:16:46.025Z,19.07
2022-07-31T04:19:15.776Z,19.12
2022-07-31T04:21:42.335Z,19.17
2022-07-31T04:24:11.534Z,19.16
2022-07-31T04:26:48.601Z,19.24
2022-07-31T04:29:16.114Z,19.13
2022-07-31T04:31:42.758Z,19.16
2022-07-31T04:34:13.008Z,19.15
2022-07-31T04:36:39.718Z,19.03
2022-07-31T04:39:06.349Z,18.97
2022-07-31T04:41:35.885Z,18.96
2022-07-31T04:44:04.999Z,18.95
2022-07-31T04:46:48.479Z,18.90
2022-07-31T04:49:15.600Z,18.80
2022-07-31T04:51:45.106Z,18.78
2022-07-31T04:54:14.223Z,18.81
2022-07-31T04:56:43.867Z,18.83
2022-07-31T04:59:13.317Z,18.79
2022-07-31T05:01:42.710Z,18.92
2022-07-31T05:04:10.514Z,18.99
2022-07-31T05:06:37.820Z,18.98
2022-07-31T05:09:16.430Z,19.04
2022-07-31T05:11:46.537Z,19.14
2022-07-31T05:14:13.684Z,19.02
2022-07-31T05:16:45.023Z,18.71
2022-07-31T05:19:14.899Z,18.35
2022-07-31T05:22:02.736Z,18.00
2022-07-31T05:24:55.266Z,17.78
2022-07-31T05:27:23.619Z,17.85
2022-07-31T05:29:50.292Z,17.81
2022-07-31T05:32:18.348Z,17.88
2022-07-31T05:34:52.235Z,17.91
2022-07-31T05:37:19.960Z,17.88
2022-07-31T05:39:46.606Z,17.98
2022-07-31T05:42:31.851Z,18.05
2022-07-31T05:45:16.782Z,18.05
2022-07-31T05:47:43.449Z,18.13
2022-07-31T05:50:10.361Z,18.09
2022-07-31T05:52:37.556Z,18.04
2022-07-31T05:55:21.074Z,18.03
2022-07-31T05:58:06.125Z,18.04
2022-07-31T06:00:32.992Z,18.04
2022-07-31T06:03:02.528Z,17.97
2022-07-31T06:05:52.771Z,17.83
2022-07-31T06:08:22.683Z,17.85
2022-07-31T06:10:50.604Z,17.74
2022-07-31T06:13:17.313Z,17.65
2022-07-31T06:15:45.373Z,17.73
2022-07-31T06:18:16.161Z,17.74
2022-07-31T06:20:43.162Z,17.75
2022-07-31T06:23:22.848Z,17.72
2022-07-31T06:26:09.707Z,17.75
2022-07-31T06:28:47.763Z,17.76
2022-07-31T06:31:20.740Z,17.75
2022-07-31T06:33:48.781Z,17.77
2022-07-31T06:36:17.722Z,17.76
2022-07-31T06:39:04.257Z,17.74
2022-07-31T06:41:48.900Z,17.75
2022-07-31T06:44:27.518Z,17.76
2022-07-31T06:47:16.341Z,17.85
2022-07-31T06:50:01.975Z,17.93
2022-07-31T06:52:34.143Z,17.94
2022-07-31T06:55:03.499Z,17.98
2022-07-31T06:57:30.317Z,17.98
2022-07-31T06:59:56.957Z,17.98
2022-07-31T07:02:24.108Z,17.95
2022-07-31T07:05:04.558Z,18.01
2022-07-31T07:07:34.476Z,18.08
2022-07-31T07:10:05.276Z,18.04
2022-07-31T07:12:51.957Z,18.03
2022-07-31T07:15:20.742Z,18.00
2022-07-31T07:17:47.337Z,17.95
2022-07-31T07:20:19.623Z,17.97
2022-07-31T07:22:46.209Z,18.03
2022-07-31T07:25:20.523Z,17.98
2022-07-31T07:27:48.447Z,17.98
2022-07-31T07:30:17.576Z,18.05
2022-07-31T07:32:46.747Z,18.16
2022-07-31T07:35:13.497Z,18.25
2022-07-31T07:37:49.668Z,18.36
2022-07-31T07:40:18.457Z,18.63
2022-07-31T07:42:45.133Z,18.76
2022-07-31T07:45:14.166Z,18.87
2022-07-31T07:48:05.024Z,19.03
2022-07-31T07:50:36.586Z,19.20
2022-07-31T07:53:32.258Z,19.59
2022-07-31T07:56:17.593Z,19.87
2022-07-31T07:58:44.348Z,19.69
2022-07-31T08:01:42.943Z,19.75
2022-07-31T08:04:24.235Z,19.81
2022-07-31T08:06:53.288Z,20.08
2022-07-31T08:09:26.301Z,20.18
2022-07-31T08:12:16.119Z,20.25
2022-07-31T08:15:01.550Z,20.31
2022-07-31T08:17:46.961Z,20.14
2022-07-31T08:20:17.338Z,20.07
2022-07-31T08:22:44.014Z,20.24
2022-07-31T08:25:14.352Z,20.29
2022-07-31T08:27:42.285Z,20.40
2022-07-31T08:30:10.395Z,20.51
2022-07-31T08:32:38.666Z,20.47
2022-07-31T08:35:05.847Z,20.55
2022-07-31T08:37:51.703Z,20.66
2022-07-31T08:40:21.376Z,20.81
2022-07-31T08:42:49.203Z,20.82
2022-07-31T08:45:18.756Z,21.08
2022-07-31T08:47:54.840Z,21.25
2022-07-31T08:50:26.608Z,21.37
2022-07-31T08:52:54.674Z,21.42
2022-07-31T08:55:56.722Z,21.31
2022-07-31T08:58:26.812Z,21.61
2022-07-31T09:00:53.930Z,21.86
2022-07-31T09:03:25.441Z,21.87
2022-07-31T09:05:59.918Z,21.64
2022-07-31T09:08:33.902Z,21.55
2022-07-31T09:11:08.562Z,21.50
2022-07-31T09:14:02.458Z,21.53
2022-07-31T09:16:50.439Z,21.76
2022-07-31T09:19:51.293Z,21.92
2022-07-31T09:22:23.536Z,22.38
2022-07-31T09:24:50.543Z,22.60
2022-07-31T09:27:18.127Z,22.56
2022-07-31T09:29:45.996Z,22.37
2022-07-31T09:32:25.116Z,22.41
2022-07-31T09:35:15.515Z,22.40
2022-07-31T09:37:42.255Z,22.49
2022-07-31T09:40:39.972Z,22.61
2022-07-31T09:43:51.646Z,22.51
2022-07-31T09:46:24.123Z,22.41
2022-07-31T09:48:51.832Z,22.52
2022-07-31T09:51:26.049Z,22.24
2022-07-31T09:53:57.905Z,22.16
2022-07-31T09:56:46.477Z,22.35
2022-07-31T09:59:18.643Z,22.15
2022-07-31T10:01:49.046Z,21.85
2022-07-31T10:04:19.637Z,21.72
2022-07-31T10:06:50.308Z,21.69
2022-07-31T10:09:18.100Z,21.74
2022-07-31T10:12:05.753Z,21.91
2022-07-31T10:14:35.492Z,22.28
2022-07-31T10:17:04.693Z,22.60
2022-07-31T10:19:49.398Z,22.46
2022-07-31T10:22:59.445Z,22.51
2022-07-31T10:25:29.437Z,22.41
2022-07-31T10:27:57.451Z,22.55
2022-07-31T10:30:28.353Z,22.75
2022-07-31T10:33:00.649Z,22.85
2022-07-31T10:35:27.889Z,22.93
2022-07-31T10:38:12.804Z,22.64
2022-07-31T10:40:56.133Z,22.33
2022-07-31T10:43:29.706Z,22.44
2022-07-31T10:46:29.852Z,22.61
2022-07-31T10:49:44.903Z,22.99
2022-07-31T10:52:34.606Z,23.47
2022-07-31T10:55:22.383Z,23.65
2022-07-31T10:58:08.096Z,23.73
2022-07-31T11:00:53.966Z,23.52
2022-07-31T11:03:22.499Z,23.00
2022-07-31T11:06:16.456Z,22.62
2022-07-31T11:08:57.529Z,22.02
2022-07-31T11:11:45.458Z,22.17
2022-07-31T11:14:34.938Z,21.88
2022-07-31T11:18:21.244Z,21.74
2022-07-31T11:20:29.848Z,21.63
2022-07-31T11:23:04.765Z,21.71
2022-07-31T11:25:35.361Z,21.76
2022-07-31T11:28:16.068Z,21.71
2022-07-31T11:30:59.474Z,22.01
2022-07-31T11:33:29.455Z,22.08
2022-07-31T11:36:27.087Z,22.18
2022-07-31T11:38:56.712Z,22.48
2022-07-31T11:41:38.154Z,22.78
2022-07-31T11:44:11.287Z,22.74
2022-07-31T11:46:38.029Z,22.64
2022-07-31T11:49:05.252Z,22.18
2022-07-31T11:51:31.939Z,22.16
2022-07-31T11:54:01.390Z,21.87
2022-07-31T11:56:28.289Z,21.81
2022-07-31T11:58:57.760Z,22.06
2022-07-31T12:01:27.861Z,22.25
2022-07-31T12:04:01.632Z,22.90
2022-07-31T12:06:36.695Z,22.94
2022-07-31T12:09:03.770Z,22.99
2022-07-31T12:11:30.343Z,22.96
2022-07-31T12:13:56.932Z,22.87
2022-07-31T12:16:25.812Z,22.81
2022-07-31T12:18:54.166Z,22.75
2022-07-31T12:21:32.282Z,22.57
2022-07-31T12:24:01.504Z,22.68
2022-07-31T12:26:33.872Z,22.46
2022-07-31T12:29:03.665Z,22.37
2022-07-31T12:31:30.881Z,22.12
2022-07-31T12:33:57.409Z,21.92
2022-07-31T12:36:27.349Z,21.67
2022-07-31T12:39:01.062Z,21.44
2022-07-31T12:41:31.224Z,21.66
2022-07-31T12:44:08.897Z,21.69
2022-07-31T12:46:36.757Z,21.77
2022-07-31T12:49:06.496Z,21.65
2022-07-31T12:51:45.254Z,21.72
2022-07-31T12:54:14.347Z,21.38
2022-07-31T12:56:43.603Z,21.51
2022-07-31T12:59:13.038Z,21.72
2022-07-31T13:01:39.987Z,21.51
2022-07-31T13:04:18.744Z,21.36
2022-07-31T13:06:51.347Z,21.34
2022-07-31T13:09:20.875Z,21.54
2022-07-31T13:11:48.342Z,21.58
2022-07-31T13:14:21.578Z,21.70
2022-07-31T13:16:48.285Z,21.70
2022-07-31T13:19:17.380Z,21.80
2022-07-31T13:21:49.675Z,21.91
2022-07-31T13:24:17.825Z,21.97
2022-07-31T13:26:45.366Z,21.97
2022-07-31T13:29:14.613Z,21.95
2022-07-31T13:31:41.629Z,21.90
2022-07-31T13:34:08.187Z,22.09
2022-07-31T13:36:39.482Z,22.38
2022-07-31T13:39:11.494Z,22.42
2022-07-31T13:41:39.398Z,22.18
2022-07-31T13:44:09.481Z,22.18
2022-07-31T13:46:39.187Z,22.24
2022-07-31T13:49:09.081Z,22.26
2022-07-31T13:51:36.321Z,22.40
2022-07-31T13:54:02.983Z,22.61
2022-07-31T13:56:39.070Z,22.77
2022-07-31T13:59:11.500Z,22.47
2022-07-31T14:04:25.264Z,22.72
2022-07-31T14:06:54.025Z,22.93
2022-07-31T14:09:20.610Z,23.19
2022-07-31T14:11:48.219Z,22.93
2022-07-31T14:14:22.990Z,22.94
2022-07-31T14:16:50.564Z,22.91
2022-07-31T14:19:17.180Z,22.63
2022-07-31T14:21:50.209Z,22.48
2022-07-31T14:24:23.369Z,22.28
2022-07-31T14:26:52.663Z,22.17
2022-07-31T14:29:21.467Z,22.18
2022-07-31T14:31:48.085Z,22.15
2022-07-31T14:34:14.864Z,21.95
2022-07-31T14:36:41.444Z,22.01
2022-07-31T14:39:11.652Z,21.92
2022-07-31T14:41:41.934Z,21.81
2022-07-31T14:44:08.520Z,21.41
2022-07-31T14:46:38.190Z,21.20
2022-07-31T14:49:05.646Z,21.04
2022-07-31T14:51:37.176Z,20.65
2022-07-31T14:54:04.190Z,20.69
2022-07-31T14:56:59.783Z,20.69
2022-07-31T14:59:19.888Z,20.80
2022-07-31T15:01:46.511Z,20.91
2022-07-31T15:04:13.165Z,21.07
2022-07-31T15:06:53.460Z,21.29
2022-07-31T15:09:25.824Z,21.66
2022-07-31T15:12:00.932Z,22.13
2022-07-31T15:14:29.040Z,22.75
2022-07-31T15:16:56.374Z,23.63
2022-07-31T15:19:25.417Z,24.48
2022-07-31T15:22:09.831Z,24.89
2022-07-31T15:24:40.125Z,24.97
2022-07-31T15:27:09.040Z,24.88
2022-07-31T15:30:03.371Z,24.86
2022-07-31T15:32:24.916Z,24.79
2022-07-31T15:34:57.477Z,24.66
2022-07-31T15:37:28.662Z,24.41
2022-07-31T15:40:02.527Z,24.30
2022-07-31T15:42:33.679Z,24.18
2022-07-31T15:45:00.412Z,24.12
2022-07-31T15:47:27.270Z,23.64
2022-07-31T15:49:54.222Z,23.22
2022-07-31T15:52:20.855Z,23.18
2022-07-31T15:54:52.075Z,23.08
2022-07-31T15:57:22.848Z,23.09
2022-07-31T15:59:50.320Z,23.05
2022-07-31T16:02:16.978Z,23.06
2022-07-31T16:04:52.321Z,23.07
2022-07-31T16:08:30.767Z,23.10
2022-07-31T16:10:15.769Z,22.98
2022-07-31T16:12:49.449Z,22.89
2022-07-31T16:15:19.600Z,22.84
2022-07-31T16:17:47.184Z,22.61
2022-07-31T16:20:20.603Z,22.35
2022-07-31T16:23:01.125Z,22.24
2022-07-31T16:25:28.443Z,22.16
2022-07-31T16:27:55.035Z,22.11
2022-07-31T16:30:22.091Z,21.92
2022-07-31T16:32:53.893Z,21.91
2022-07-31T16:35:20.595Z,21.91
2022-07-31T16:37:52.377Z,22.00
2022-07-31T16:40:28.214Z,22.08
2022-07-31T16:43:48.266Z,22.07
2022-07-31T16:45:56.650Z,22.15
2022-07-31T16:48:25.626Z,22.14
2022-07-31T16:50:54.195Z,22.14
2022-07-31T16:54:12.903Z,22.11
2022-07-31T16:56:14.794Z,22.04
2022-07-31T16:58:44.417Z,21.98
2022-07-31T17:01:54.146Z,21.95
2022-07-31T17:04:04.407Z,21.94
2022-07-31T17:06:38.175Z,21.99
2022-07-31T17:09:15.397Z,22.07
2022-07-31T17:11:49.231Z,22.15
2022-07-31T17:14:19.162Z,22.30
2022-07-31T17:16:48.043Z,22.38
2022-07-31T17:19:16.127Z,22.38
2022-07-31T17:21:44.358Z,22.43
2022-07-31T17:24:12.665Z,22.43
2022-07-31T17:26:45.730Z,22.40
2022-07-31T17:29:13.022Z,22.25
2022-07-31T17:31:39.666Z,22.11
2022-07-31T17:34:11.790Z,22.05
2022-07-31T17:36:38.877Z,22.06
2022-07-31T17:39:05.825Z,21.97
2022-07-31T17:41:32.350Z,22.00
2022-07-31T17:44:02.022Z,22.02
2022-07-31T17:46:36.407Z,22.04
2022-07-31T17:49:09.170Z,22.06
2022-07-31T17:51:35.899Z,22.09
2022-07-31T17:54:08.931Z,22.09
2022-07-31T17:56:36.420Z,22.12
2022-07-31T17:59:06.351Z,22.14
2022-07-31T18:01:33.721Z,22.13
2022-07-31T18:04:00.888Z,22.13
2022-07-31T18:06:28.058Z,22.11
2022-07-31T18:08:54.650Z,22.11
2022-07-31T18:11:21.577Z,22.09
2022-07-31T18:13:54.144Z,22.07
2022-07-31T18:16:23.253Z,22.04
2022-07-31T18:18:54.484Z,22.00
2022-07-31T18:21:21.360Z,21.97
2022-07-31T18:23:50.612Z,21.93
2022-07-31T18:26:17.597Z,21.89
2022-07-31T18:28:44.195Z,21.85
2022-07-31T18:31:32.218Z,21.83
2022-07-31T18:34:02.160Z,21.80
2022-07-31T18:36:29.322Z,21.82
2022-07-31T18:38:55.909Z,21.74
2022-07-31T18:41:22.729Z,21.71
2022-07-31T18:43:49.283Z,21.66
2022-07-31T18:46:19.976Z,21.63
2022-07-31T18:48:46.712Z,21.58
2022-07-31T18:51:14.413Z,21.54
2022-07-31T18:53:41.094Z,21.50
2022-07-31T18:56:10.927Z,21.48
2022-07-31T18:58:39.857Z,21.47
2022-07-31T19:01:07.286Z,21.43
2022-07-31T19:03:33.945Z,21.41
2022-07-31T19:06:00.494Z,21.31
2022-07-31T19:08:27.245Z,21.30
2022-07-31T19:10:53.806Z,21.29
2022-07-31T19:13:23.197Z,21.31
2022-07-31T19:15:53.434Z,21.33
2022-07-31T19:18:25.737Z,21.32
2022-07-31T19:21:19.078Z,21.26
2022-07-31T19:23:47.751Z,21.24
2022-07-31T19:26:17.716Z,21.25
2022-07-31T19:28:44.349Z,21.26
2022-07-31T19:31:11.630Z,21.23
2022-07-31T19:33:38.274Z,21.21
2022-07-31T19:36:05.024Z,21.13
2022-07-31T19:38:32.381Z,20.99
2022-07-31T19:41:01.419Z,20.86
2022-07-31T19:43:28.542Z,20.84
2022-07-31T19:46:09.758Z,20.89
2022-07-31T19:48:42.575Z,20.96
2022-07-31T19:51:09.649Z,20.97
2022-07-31T19:53:36.458Z,20.96
2022-07-31T19:56:06.167Z,20.95
2022-07-31T19:58:35.747Z,20.98
2022-07-31T20:01:05.455Z,21.01
2022-07-31T20:03:34.453Z,21.02
2022-07-31T20:06:03.963Z,21.03
2022-07-31T20:08:32.763Z,21.02
2022-07-31T20:11:03.339Z,20.99
2022-07-31T20:13:32.913Z,21.00
2022-07-31T20:15:59.597Z,20.98
2022-07-31T20:18:29.829Z,20.98
2022-07-31T20:20:57.983Z,21.00
2022-07-31T20:23:25.133Z,21.02
2022-07-31T20:25:54.825Z,21.06
2022-07-31T20:28:24.239Z,21.08
2022-07-31T20:30:50.873Z,21.09
2022-07-31T20:33:20.043Z,21.12
2022-07-31T20:35:50.338Z,21.14
2022-07-31T20:38:21.350Z,21.14
2022-07-31T20:40:54.037Z,21.13
2022-07-31T20:43:28.123Z,21.15
2022-07-31T20:45:57.427Z,21.14
2022-07-31T20:48:27.042Z,21.05
2022-07-31T20:51:01.238Z,21.04
2022-07-31T20:53:29.410Z,21.06
2022-07-31T20:55:55.986Z,21.09
2022-07-31T20:58:25.201Z,21.13
2022-07-31T21:00:55.361Z,21.14
2022-07-31T21:03:24.472Z,21.08
2022-07-31T21:05:54.028Z,21.12
2022-07-31T21:08:24.616Z,21.13
2022-07-31T21:10:51.178Z,21.08
2022-07-31T21:13:17.982Z,21.08
2022-07-31T21:15:45.426Z,21.10
2022-07-31T21:18:12.885Z,21.11
2022-07-31T21:20:50.649Z,21.09
2022-07-31T21:23:26.234Z,21.09
2022-07-31T21:25:56.556Z,21.08
2022-07-31T21:28:23.547Z,21.10
2022-07-31T21:30:53.684Z,21.03
2022-07-31T21:33:20.444Z,21.04
2022-07-31T21:35:47.284Z,20.98
2022-07-31T21:38:21.707Z,20.80
2022-07-31T21:40:50.671Z,20.77
2022-07-31T21:43:18.559Z,20.76
2022-07-31T21:45:50.614Z,20.74
2022-07-31T21:48:23.561Z,20.79
2022-07-31T21:50:50.404Z,20.83
2022-07-31T21:53:22.261Z,20.85
2022-07-31T21:55:49.591Z,20.82
2022-07-31T21:58:17.334Z,20.84
2022-07-31T22:00:44.665Z,20.87
2022-07-31T22:03:14.107Z,20.88
2022-07-31T22:06:02.313Z,20.90
2022-07-31T22:08:31.959Z,20.88
2022-07-31T22:11:00.861Z,20.86
2022-07-31T22:13:27.395Z,20.82
2022-07-31T22:15:59.987Z,20.78
2022-07-31T22:18:33.279Z,20.73
2022-07-31T22:21:00.570Z,20.65
2022-07-31T22:23:27.595Z,20.57
2022-07-31T22:25:55.219Z,20.53
2022-07-31T22:28:22.778Z,20.47
2022-07-31T22:30:51.917Z,20.43
2022-07-31T22:33:21.044Z,20.37
2022-07-31T22:35:59.791Z,20.31
2022-07-31T22:38:27.555Z,20.24
2022-07-31T22:40:56.495Z,20.17
2022-07-31T22:44:11.049Z,20.10
2022-07-31T22:46:11.235Z,20.02
2022-07-31T22:48:40.515Z,19.95
2022-07-31T22:51:07.955Z,19.90
2022-07-31T22:53:35.127Z,19.83
2022-07-31T22:56:04.082Z,19.78
2022-07-31T22:58:34.429Z,19.72
2022-07-31T23:01:03.346Z,19.66
2022-07-31T23:03:32.257Z,19.60
2022-07-31T23:06:05.310Z,19.55
2022-07-31T23:08:50.188Z,19.49
2022-07-31T23:11:20.373Z,19.44
2022-07-31T23:13:47.183Z,19.46
2022-07-31T23:16:13.776Z,19.40
2022-07-31T23:18:43.674Z,19.37
2022-07-31T23:21:10.269Z,19.33
2022-07-31T23:23:37.481Z,19.29
2022-07-31T23:26:04.333Z,19.26
2022-07-31T23:28:36.802Z,19.16
2022-07-31T23:31:03.556Z,19.11
2022-07-31T23:33:30.284Z,19.03
2022-07-31T23:35:57.361Z,18.99
2022-07-31T23:38:26.235Z,19.02
2022-07-31T23:40:56.278Z,19.05
2022-07-31T23:43:23.300Z,19.07
2022-07-31T23:45:50.295Z,19.02
2022-07-31T23:48:18.832Z,19.03
2022-07-31T23:50:45.853Z,19.05
2022-07-31T23:53:12.475Z,19.03
2022-07-31T23:55:42.715Z,19.03
2022-07-31T23:58:09.791Z,19.01
